createdAt,value
2023-05-13T00:00:54.446Z,12.30
2023-05-13T00:03:40.907Z,12.40
2023-05-13T00:06:29.108Z,12.30
2023-05-13T00:09:15.747Z,12.40
2023-05-13T00:12:03.291Z,12.40
2023-05-13T00:14:49.645Z,12.40
2023-05-13T00:17:36.167Z,12.40
2023-05-13T00:20:23.520Z,12.50
2023-05-13T00:23:11.643Z,12.50
2023-05-13T00:25:58.322Z,12.50
2023-05-13T00:28:44.756Z,12.60
2023-05-13T00:31:31.329Z,12.60
2023-05-13T00:34:18.548Z,12.70
2023-05-13T00:37:05.604Z,12.60
2023-05-13T00:39:53.942Z,12.60
2023-05-13T00:42:40.526Z,12.50
2023-05-13T00:45:27.322Z,12.60
2023-05-13T00:48:13.986Z,12.50
2023-05-13T00:51:00.930Z,12.50
2023-05-13T00:53:48.109Z,12.50
2023-05-13T00:56:38.275Z,12.40
2023-05-13T00:59:26.710Z,12.50
2023-05-13T01:02:21.486Z,12.20
2023-05-13T01:05:17.903Z,12.20
2023-05-13T01:08:10.025Z,12.10
2023-05-13T01:11:02.004Z,12.00
2023-05-13T01:13:52.185Z,11.90
2023-05-13T01:16:42.734Z,11.80
2023-05-13T01:19:40.622Z,11.70
2023-05-13T01:22:28.514Z,11.60
2023-05-13T01:25:15.229Z,11.70
2023-05-13T01:28:03.170Z,11.70
2023-05-13T01:30:51.261Z,11.80
2023-05-13T01:33:38.531Z,11.90
2023-05-13T01:36:25.878Z,11.90
2023-05-13T01:39:14.921Z,11.70
2023-05-13T01:42:01.957Z,11.50
2023-05-13T01:44:49.429Z,11.50
2023-05-13T01:47:36.323Z,11.40
2023-05-13T01:50:23.873Z,11.50
2023-05-13T01:53:12.699Z,11.50
2023-05-13T01:56:00.758Z,11.40
2023-05-13T01:58:47.399Z,11.30
2023-05-13T02:01:34.779Z,11.40
2023-05-13T02:04:21.602Z,11.30
2023-05-13T02:07:08.355Z,11.30
2023-05-13T02:09:59.594Z,11.30
2023-05-13T02:12:47.853Z,11.40
2023-05-13T02:15:34.542Z,11.30
2023-05-13T02:18:22.140Z,11.30
2023-05-13T02:21:09.128Z,11.30
2023-05-13T02:23:56.035Z,11.40
2023-05-13T02:26:42.573Z,11.20
2023-05-13T02:29:30.318Z,11.20
2023-05-13T02:32:17.242Z,11.20
2023-05-13T02:35:04.408Z,11.30
2023-05-13T02:37:50.919Z,11.30
2023-05-13T02:40:37.817Z,11.20
2023-05-13T02:43:24.925Z,11.30
2023-05-13T02:46:18.114Z,11.30
2023-05-13T02:49:05.695Z,11.20
2023-05-13T02:51:52.508Z,11.30
2023-05-13T02:54:44.784Z,11.20
2023-05-13T02:57:31.674Z,11.20
2023-05-13T03:00:19.777Z,11.30
2023-05-13T03:03:08.311Z,11.20
2023-05-13T03:05:54.863Z,11.20
2023-05-13T03:08:41.795Z,11.20
2023-05-13T03:11:28.306Z,11.20
2023-05-13T03:14:15.093Z,11.20
2023-05-13T03:17:01.558Z,11.30
2023-05-13T03:19:49.823Z,11.20
2023-05-13T03:22:38.593Z,11.10
2023-05-13T03:25:25.632Z,11.10
2023-05-13T03:28:17.297Z,11.20
2023-05-13T03:31:04.930Z,11.10
2023-05-13T03:33:56.098Z,11.00
2023-05-13T03:36:44.392Z,10.90
2023-05-13T03:39:31.842Z,11.00
2023-05-13T03:42:19.244Z,11.10
2023-05-13T03:45:07.718Z,11.20
2023-05-13T03:47:56.658Z,11.10
2023-05-13T03:50:44.649Z,11.00
2023-05-13T03:53:33.825Z,10.90
2023-05-13T03:56:21.482Z,10.70
2023-05-13T03:59:08.110Z,10.70
2023-05-13T04:01:56.110Z,10.50
2023-05-13T04:04:42.994Z,10.50
2023-05-13T04:07:29.852Z,10.50
2023-05-13T04:10:17.490Z,10.60
2023-05-13T04:13:03.934Z,10.50
2023-05-13T04:15:50.823Z,10.70
2023-05-13T04:18:37.851Z,10.70
2023-05-13T04:21:24.827Z,10.60
2023-05-13T04:24:11.531Z,10.60
2023-05-13T04:27:01.223Z,10.60
2023-05-13T04:29:49.153Z,10.50
2023-05-13T04:32:36.210Z,10.50
2023-05-13T04:35:22.955Z,10.90
2023-05-13T04:38:14.204Z,11.00
2023-05-13T04:41:00.941Z,11.10
2023-05-13T04:44:03.549Z,11.20
2023-05-13T04:46:50.597Z,11.20
2023-05-13T04:49:37.776Z,11.30
2023-05-13T04:52:25.512Z,11.70
2023-05-13T04:55:12.412Z,11.90
2023-05-13T04:57:59.432Z,11.90
2023-05-13T05:00:47.789Z,12.10
2023-05-13T05:03:35.429Z,12.50
2023-05-13T05:06:22.444Z,12.70
2023-05-13T05:09:09.493Z,13.00
2023-05-13T05:11:55.902Z,13.30
2023-05-13T05:14:45.684Z,13.30
2023-05-13T05:17:34.102Z,13.20
2023-05-13T05:20:24.304Z,13.40
2023-05-13T05:23:12.876Z,13.90
2023-05-13T05:26:11.224Z,14.20
2023-05-13T05:28:59.626Z,14.30
2023-05-13T05:31:46.155Z,14.60
2023-05-13T05:34:34.316Z,15.30
2023-05-13T05:37:21.378Z,15.30
2023-05-13T05:40:09.056Z,14.90
2023-05-13T05:42:59.106Z,14.90
2023-05-13T05:45:45.526Z,15.20
2023-05-13T05:48:36.429Z,15.30
2023-05-13T05:51:25.683Z,15.80
2023-05-13T05:54:12.715Z,15.60
2023-05-13T05:56:59.650Z,16.40
2023-05-13T05:59:47.457Z,17.10
2023-05-13T06:02:34.446Z,17.70
2023-05-13T06:05:23.641Z,17.90
2023-05-13T06:08:11.496Z,17.90
2023-05-13T06:10:58.714Z,17.30
2023-05-13T06:13:46.038Z,17.50
2023-05-13T06:16:33.000Z,18.20
2023-05-13T06:19:19.724Z,18.10
2023-05-13T06:22:06.090Z,18.30
2023-05-13T06:24:53.653Z,18.10
2023-05-13T06:27:40.526Z,18.00
2023-05-13T06:30:26.969Z,17.80
2023-05-13T06:33:13.454Z,18.00
2023-05-13T06:36:00.214Z,17.50
2023-05-13T06:38:47.275Z,17.40
2023-05-13T06:41:35.943Z,17.50
2023-05-13T06:44:28.816Z,17.90
2023-05-13T06:47:16.370Z,18.30
2023-05-13T06:50:03.983Z,17.70
2023-05-13T06:52:51.034Z,17.40
2023-05-13T06:55:41.398Z,17.60
2023-05-13T06:58:29.593Z,17.00
2023-05-13T07:01:16.127Z,16.70
2023-05-13T07:04:02.832Z,16.00
2023-05-13T07:06:50.609Z,15.50
2023-05-13T07:09:37.221Z,15.40
2023-05-13T07:12:24.077Z,15.30
2023-05-13T07:15:12.458Z,15.30
2023-05-13T07:17:58.914Z,15.30
2023-05-13T07:20:46.534Z,15.30
2023-05-13T07:23:33.484Z,14.70
2023-05-13T07:26:19.904Z,14.40
2023-05-13T07:29:06.411Z,14.70
2023-05-13T07:31:54.414Z,14.10
2023-05-13T07:34:40.728Z,14.30
2023-05-13T07:37:27.379Z,14.00
2023-05-13T07:40:14.822Z,13.80
2023-05-13T07:43:01.238Z,14.00
2023-05-13T07:45:47.960Z,13.70
2023-05-13T07:48:35.881Z,14.10
2023-05-13T07:51:22.614Z,14.20
2023-05-13T07:54:09.965Z,14.20
2023-05-13T07:56:56.650Z,14.40
2023-05-13T07:59:44.757Z,14.40
2023-05-13T08:02:34.763Z,14.40
2023-05-13T08:05:23.439Z,14.50
2023-05-13T08:08:10.492Z,14.40
2023-05-13T08:10:57.358Z,14.40
2023-05-13T08:13:43.865Z,14.50
2023-05-13T08:16:31.014Z,14.20
2023-05-13T08:19:18.142Z,14.50
2023-05-13T08:22:06.584Z,14.70
2023-05-13T08:24:53.114Z,15.30
2023-05-13T08:27:39.556Z,15.70
2023-05-13T08:30:26.333Z,16.10
2023-05-13T08:33:13.003Z,16.70
2023-05-13T08:36:01.618Z,16.70
2023-05-13T08:38:50.137Z,16.60
2023-05-13T08:41:38.467Z,16.70
2023-05-13T08:44:29.077Z,16.90
2023-05-13T08:47:25.563Z,16.90
2023-05-13T08:50:14.432Z,17.10
2023-05-13T08:53:01.038Z,16.80
2023-05-13T08:55:49.632Z,17.00
2023-05-13T08:58:36.516Z,17.00
2023-05-13T09:01:24.945Z,17.20
2023-05-13T09:04:11.990Z,17.30
2023-05-13T09:06:59.507Z,16.90
2023-05-13T09:09:46.796Z,16.80
2023-05-13T09:12:49.480Z,16.30
2023-05-13T09:15:36.532Z,15.90
2023-05-13T09:18:30.413Z,15.70
2023-05-13T09:21:24.661Z,16.00
2023-05-13T09:24:13.243Z,16.30
2023-05-13T09:26:59.946Z,16.40
2023-05-13T09:29:49.818Z,16.70
2023-05-13T09:32:36.698Z,16.90
2023-05-13T09:35:23.881Z,17.00
2023-05-13T09:38:15.598Z,17.10
2023-05-13T09:41:04.068Z,17.00
2023-05-13T09:43:51.155Z,16.50
2023-05-13T09:46:39.183Z,16.50
2023-05-13T09:49:27.951Z,16.80
2023-05-13T09:52:18.051Z,16.90
2023-05-13T09:55:09.649Z,17.20
2023-05-13T09:57:57.700Z,17.30
2023-05-13T10:00:45.078Z,17.20
2023-05-13T10:03:33.906Z,17.50
2023-05-13T10:06:25.422Z,17.20
2023-05-13T10:09:12.689Z,17.10
2023-05-13T10:12:00.585Z,17.00
2023-05-13T10:14:49.670Z,17.00
2023-05-13T10:17:37.199Z,17.30
2023-05-13T10:20:26.706Z,17.40
2023-05-13T10:23:14.054Z,17.20
2023-05-13T10:26:00.698Z,17.40
2023-05-13T10:28:48.531Z,17.80
2023-05-13T10:31:36.011Z,18.00
2023-05-13T10:34:23.622Z,17.90
2023-05-13T10:37:31.590Z,17.80
2023-05-13T10:41:00.544Z,18.00
2023-05-13T10:43:47.498Z,17.80
2023-05-13T10:46:39.241Z,17.60
2023-05-13T10:49:33.665Z,17.70
2023-05-13T10:52:21.955Z,17.60
2023-05-13T10:55:16.659Z,17.30
2023-05-13T10:58:09.676Z,17.00
2023-05-13T11:01:14.480Z,17.00
2023-05-13T11:04:03.755Z,17.20
2023-05-13T11:06:51.776Z,17.10
2023-05-13T11:09:40.167Z,17.40
2023-05-13T11:12:27.086Z,17.20
2023-05-13T11:15:22.872Z,17.10
2023-05-13T11:18:11.394Z,17.10
2023-05-13T11:21:07.470Z,17.10
2023-05-13T11:23:58.640Z,17.30
2023-05-13T11:26:49.254Z,17.30
2023-05-13T11:29:37.330Z,17.30
2023-05-13T11:32:54.121Z,17.20
2023-05-13T11:35:41.216Z,17.10
2023-05-13T11:38:28.538Z,17.10
2023-05-13T11:41:15.302Z,17.10
2023-05-13T11:44:05.971Z,17.30
2023-05-13T11:46:54.911Z,17.40
2023-05-13T11:49:43.202Z,17.30
2023-05-13T11:52:30.314Z,17.20
2023-05-13T11:55:26.712Z,17.20
2023-05-13T11:58:15.189Z,17.00
2023-05-13T12:01:03.253Z,17.10
2023-05-13T12:03:50.081Z,17.20
2023-05-13T12:06:44.142Z,17.00
2023-05-13T12:09:31.104Z,16.80
2023-05-13T12:12:18.005Z,16.80
2023-05-13T12:15:06.585Z,16.50
2023-05-13T12:17:54.761Z,16.70
2023-05-13T12:20:41.503Z,17.00
2023-05-13T12:23:38.312Z,17.00
2023-05-13T12:26:25.335Z,17.30
2023-05-13T12:29:12.036Z,17.50
2023-05-13T12:32:06.412Z,17.60
2023-05-13T12:34:55.352Z,17.80
2023-05-13T12:37:42.769Z,17.60
2023-05-13T12:40:30.386Z,17.50
2023-05-13T12:43:18.711Z,17.50
2023-05-13T12:46:07.158Z,17.30
2023-05-13T12:48:57.961Z,17.30
2023-05-13T12:51:45.974Z,17.40
2023-05-13T12:54:32.363Z,17.30
2023-05-13T12:57:20.485Z,17.10
2023-05-13T13:00:09.999Z,17.20
2023-05-13T13:02:57.189Z,17.30
2023-05-13T13:05:43.878Z,17.00
2023-05-13T13:08:32.603Z,17.10
2023-05-13T13:11:19.436Z,17.20
2023-05-13T13:14:06.415Z,17.30
2023-05-13T13:16:53.049Z,17.40
2023-05-13T13:19:39.892Z,17.30
2023-05-13T13:22:26.838Z,17.40
2023-05-13T13:25:15.358Z,17.30
2023-05-13T13:28:01.830Z,17.30
2023-05-13T13:30:48.525Z,17.50
2023-05-13T13:33:35.438Z,17.50
2023-05-13T13:36:21.931Z,17.40
2023-05-13T13:39:08.279Z,17.50
2023-05-13T13:41:57.268Z,17.50
2023-05-13T13:44:44.297Z,17.60
2023-05-13T13:47:31.147Z,17.70
2023-05-13T13:50:18.175Z,17.80
2023-05-13T13:53:05.269Z,17.60
2023-05-13T13:55:51.797Z,17.50
2023-05-13T13:58:40.548Z,17.50
2023-05-13T14:01:27.720Z,17.70
2023-05-13T14:04:16.392Z,17.80
2023-05-13T14:07:04.858Z,17.70
2023-05-13T14:09:52.452Z,17.70
2023-05-13T14:12:39.731Z,17.70
2023-05-13T14:15:29.638Z,17.70
2023-05-13T14:18:16.686Z,17.60
2023-05-13T14:21:03.642Z,17.60
2023-05-13T14:23:50.562Z,17.50
2023-05-13T14:26:37.926Z,17.60
2023-05-13T14:29:24.900Z,17.70
2023-05-13T14:32:12.892Z,17.80
2023-05-13T14:34:59.653Z,17.80
2023-05-13T14:37:46.563Z,18.00
2023-05-13T14:40:34.336Z,18.20
2023-05-13T14:43:21.070Z,18.10
2023-05-13T14:46:07.482Z,18.00
2023-05-13T14:48:55.559Z,17.80
2023-05-13T14:51:42.150Z,17.90
2023-05-13T14:54:29.128Z,18.10
2023-05-13T14:57:16.095Z,18.30
2023-05-13T15:00:02.992Z,18.30
2023-05-13T15:02:50.033Z,18.30
2023-05-13T15:05:38.148Z,18.20
2023-05-13T15:08:25.129Z,18.10
2023-05-13T15:11:12.067Z,17.90
2023-05-13T15:13:59.194Z,17.90
2023-05-13T15:16:45.965Z,17.80
2023-05-13T15:19:32.923Z,17.80
2023-05-13T15:22:20.766Z,17.80
2023-05-13T15:25:08.847Z,17.90
2023-05-13T15:27:56.273Z,17.70
2023-05-13T15:30:42.898Z,17.80
2023-05-13T15:33:29.688Z,17.70
2023-05-13T15:36:16.664Z,17.80
2023-05-13T15:39:04.847Z,17.80
2023-05-13T15:41:51.717Z,17.80
2023-05-13T15:44:38.333Z,17.90
2023-05-13T15:47:25.608Z,18.10
2023-05-13T15:50:12.614Z,18.10
2023-05-13T15:52:59.726Z,18.00
2023-05-13T15:55:47.541Z,17.80
2023-05-13T15:58:34.222Z,17.60
2023-05-13T16:01:20.680Z,17.60
2023-05-13T16:04:07.846Z,17.40
2023-05-13T16:06:54.456Z,17.30
2023-05-13T16:09:41.670Z,17.30
2023-05-13T16:12:30.910Z,17.00
2023-05-13T16:15:17.862Z,17.10
2023-05-13T16:18:04.566Z,17.10
2023-05-13T16:20:51.475Z,17.10
2023-05-13T16:23:38.160Z,17.10
2023-05-13T16:26:24.569Z,17.00
2023-05-13T16:29:12.587Z,16.90
2023-05-13T16:31:59.084Z,17.00
2023-05-13T16:34:45.936Z,17.00
2023-05-13T16:37:34.475Z,17.10
2023-05-13T16:40:21.189Z,17.10
2023-05-13T16:43:08.415Z,17.00
2023-05-13T16:45:56.967Z,17.10
2023-05-13T16:48:43.859Z,17.30
2023-05-13T16:51:30.890Z,17.40
2023-05-13T16:54:17.835Z,17.40
2023-05-13T16:57:04.797Z,17.30
2023-05-13T16:59:51.706Z,17.30
2023-05-13T17:02:40.142Z,17.20
2023-05-13T17:05:26.678Z,17.10
2023-05-13T17:08:13.639Z,17.00
2023-05-13T17:11:00.199Z,16.90
2023-05-13T17:13:47.246Z,16.90
2023-05-13T17:16:33.824Z,16.90
2023-05-13T17:19:22.282Z,16.90
2023-05-13T17:22:08.836Z,16.90
2023-05-13T17:24:56.051Z,16.80
2023-05-13T17:27:42.921Z,16.70
2023-05-13T17:30:29.978Z,16.70
2023-05-13T17:33:16.642Z,16.50
2023-05-13T17:36:05.501Z,16.50
2023-05-13T17:38:52.768Z,16.50
2023-05-13T17:41:39.161Z,16.50
2023-05-13T17:44:25.631Z,16.50
2023-05-13T17:47:12.467Z,16.50
2023-05-13T17:49:58.849Z,16.50
2023-05-13T17:52:46.977Z,16.60
2023-05-13T17:55:33.851Z,16.60
2023-05-13T17:58:20.681Z,16.50
2023-05-13T18:01:07.734Z,16.50
2023-05-13T18:03:54.808Z,16.50
2023-05-13T18:06:41.442Z,16.50
2023-05-13T18:09:29.363Z,16.40
2023-05-13T18:12:15.970Z,16.40
2023-05-13T18:15:02.586Z,16.50
2023-05-13T18:17:50.581Z,16.40
2023-05-13T18:20:39.926Z,16.50
2023-05-13T18:23:26.645Z,16.40
2023-05-13T18:26:14.380Z,16.40
2023-05-13T18:29:00.855Z,16.10
2023-05-13T18:31:47.456Z,16.00
2023-05-13T18:34:34.808Z,15.90
2023-05-13T18:37:21.096Z,15.90
2023-05-13T18:40:09.504Z,15.70
2023-05-13T18:42:57.425Z,15.70
2023-05-13T18:45:44.129Z,15.70
2023-05-13T18:48:30.964Z,15.60
2023-05-13T18:51:17.988Z,15.60
2023-05-13T18:54:06.245Z,15.60
2023-05-13T18:56:53.208Z,15.60
2023-05-13T18:59:41.258Z,15.70
2023-05-13T19:02:28.062Z,15.70
2023-05-13T19:05:14.673Z,15.80
2023-05-13T19:08:01.663Z,15.80
2023-05-13T19:10:48.482Z,15.70
2023-05-13T19:13:46.219Z,15.70
2023-05-13T19:16:35.535Z,15.80
2023-05-13T19:19:22.134Z,15.90
2023-05-13T19:22:08.468Z,15.90
2023-05-13T19:24:55.566Z,15.80
2023-05-13T19:27:42.198Z,15.80
2023-05-13T19:30:28.931Z,15.70
2023-05-13T19:33:17.672Z,15.70
2023-05-13T19:36:04.833Z,15.50
2023-05-13T19:38:51.729Z,15.40
2023-05-13T19:41:38.469Z,15.40
2023-05-13T19:44:27.819Z,15.30
2023-05-13T19:47:14.563Z,15.20
2023-05-13T19:50:02.188Z,15.00
2023-05-13T19:52:48.973Z,14.80
2023-05-13T19:55:36.124Z,14.50
2023-05-13T19:58:22.893Z,14.50
2023-05-13T20:01:09.364Z,14.40
2023-05-13T20:03:56.428Z,14.50
2023-05-13T20:06:44.716Z,14.40
2023-05-13T20:09:31.715Z,14.20
2023-05-13T20:12:19.085Z,14.10
2023-05-13T20:15:06.849Z,13.90
2023-05-13T20:17:53.108Z,13.80
2023-05-13T20:20:41.507Z,13.70
2023-05-13T20:23:29.769Z,13.70
2023-05-13T20:26:16.137Z,13.60
2023-05-13T20:29:02.677Z,13.60
2023-05-13T20:31:49.481Z,13.70
2023-05-13T20:34:37.333Z,13.60
2023-05-13T20:37:24.329Z,13.60
2023-05-13T20:40:12.967Z,13.60
2023-05-13T20:43:01.234Z,13.50
2023-05-13T20:45:48.159Z,13.50
2023-05-13T20:48:35.322Z,13.40
2023-05-13T20:51:21.771Z,13.20
2023-05-13T20:54:09.522Z,13.20
2023-05-13T20:56:57.226Z,13.20
2023-05-13T20:59:43.579Z,13.10
2023-05-13T21:02:30.294Z,13.00
2023-05-13T21:05:17.228Z,12.90
2023-05-13T21:08:03.698Z,12.70
2023-05-13T21:10:50.183Z,12.60
2023-05-13T21:13:37.973Z,12.50
2023-05-13T21:16:25.003Z,12.50
2023-05-13T21:19:20.408Z,12.40
2023-05-13T21:22:06.954Z,12.40
2023-05-13T21:24:53.494Z,12.30
2023-05-13T21:27:39.813Z,12.30
2023-05-13T21:30:28.207Z,12.10
2023-05-13T21:33:16.686Z,12.10
2023-05-13T21:36:03.227Z,12.10
2023-05-13T21:38:50.553Z,12.10
2023-05-13T21:41:37.577Z,11.90
2023-05-13T21:44:24.820Z,11.90
2023-05-13T21:47:12.747Z,11.90
2023-05-13T21:49:59.433Z,12.00
2023-05-13T21:52:46.039Z,12.10
2023-05-13T21:55:34.905Z,12.00
2023-05-13T21:58:23.426Z,12.10
2023-05-13T22:01:10.637Z,12.30
2023-05-13T22:03:58.768Z,12.30
2023-05-13T22:06:45.282Z,12.40
2023-05-13T22:09:32.139Z,12.20
2023-05-13T22:12:18.779Z,12.20
2023-05-13T22:15:05.586Z,12.20
2023-05-13T22:17:52.747Z,12.20
2023-05-13T22:20:41.165Z,12.20
2023-05-13T22:23:27.868Z,12.40
2023-05-13T22:26:14.203Z,12.50
2023-05-13T22:29:00.718Z,12.60
2023-05-13T22:31:47.649Z,12.60
2023-05-13T22:34:34.476Z,12.60
2023-05-13T22:37:22.206Z,12.70
2023-05-13T22:40:10.383Z,12.60
2023-05-13T22:42:56.664Z,12.60
2023-05-13T22:45:43.649Z,12.40
2023-05-13T22:48:30.197Z,12.40
2023-05-13T22:51:16.466Z,12.50
2023-05-13T22:54:04.301Z,12.50
2023-05-13T22:56:50.797Z,12.30
2023-05-13T22:59:37.621Z,12.40
2023-05-13T23:02:24.171Z,12.30
2023-05-13T23:05:10.932Z,12.30
2023-05-13T23:07:57.233Z,12.50
2023-05-13T23:10:44.906Z,12.40
2023-05-13T23:13:31.720Z,12.30
2023-05-13T23:16:19.391Z,12.30
2023-05-13T23:19:06.090Z,12.40
2023-05-13T23:21:53.156Z,12.40
2023-05-13T23:24:39.600Z,12.60
2023-05-13T23:27:28.259Z,12.60
2023-05-13T23:30:15.952Z,12.60
2023-05-13T23:33:02.559Z,12.70
2023-05-13T23:35:53.923Z,12.70
2023-05-13T23:38:40.748Z,12.70
2023-05-13T23:41:27.171Z,12.80
2023-05-13T23:44:14.954Z,13.00
2023-05-13T23:47:01.134Z,13.10
2023-05-13T23:49:47.376Z,13.10
2023-05-13T23:52:34.106Z,13.20
2023-05-13T23:55:21.343Z,13.10
2023-05-13T23:58:07.826Z,13.20
